Time;durP1;ratioP1;P1;durP2;ratioP2;P2;SDS_P1;SDS_P2;PMS_P1;PMS_P2;Temp;Humidity;BMP_temperature;BMP_pressure;BME280_temperature;BME280_humidity;BME280_pressure;Samples;Min_cycle;Max_cycle;Signal;HPM_P1;HPM_P2
2022/09/26 00:02:05;;;;;;;5.23;3.10;;;9.50;99.90;;;;;;6215832;23;20168;-85
2022/09/26 00:04:31;;;;;;;5.67;3.40;;;9.50;99.90;;;;;;6215893;23;20162;-87
2022/09/26 00:06:57;;;;;;;10.30;2.90;;;9.50;99.90;;;;;;6215240;23;20194;-87
2022/09/26 00:09:24;;;;;;;6.50;3.17;;;9.50;99.90;;;;;;6215738;23;20157;-86
2022/09/26 00:11:50;;;;;;;5.37;2.80;;;10.90;99.90;;;;;;6215353;23;20595;-89
2022/09/26 00:14:22;;;;;;;8.03;3.00;;;10.00;99.90;;;;;;6215639;23;20173;-87
2022/09/26 00:16:48;;;;;;;6.43;3.17;;;9.70;99.90;;;;;;6215077;23;20237;-86
2022/09/26 00:19:14;;;;;;;3.73;3.03;;;9.70;99.90;;;;;;6215019;23;20178;-87
2022/09/26 00:21:39;;;;;;;6.53;3.03;;;9.80;99.90;;;;;;6215762;23;20162;-89
2022/09/26 00:24:05;;;;;;;6.10;3.23;;;9.70;99.90;;;;;;6215091;23;20504;-86
2022/09/26 00:26:33;;;;;;;4.93;2.90;;;9.70;99.90;;;;;;6214929;23;20190;-87
2022/09/26 00:29:03;;;;;;;4.23;3.00;;;10.20;99.90;;;;;;6215886;23;20599;-87
2022/09/26 00:31:32;;;;;;;4.20;2.80;;;9.70;99.90;;;;;;6214806;23;20179;-86
2022/09/26 00:33:58;;;;;;;6.97;3.03;;;10.10;99.90;;;;;;6215197;23;20160;-87
2022/09/26 00:36:25;;;;;;;5.97;3.50;;;9.80;99.90;;;;;;6215340;23;20183;-87
2022/09/26 00:38:50;;;;;;;5.43;3.60;;;9.80;99.90;;;;;;6214648;23;20171;-87
2022/09/26 00:41:16;;;;;;;6.77;3.67;;;9.80;99.90;;;;;;6216116;23;20166;-88
2022/09/26 00:43:51;;;;;;;6.13;4.07;;;10.30;99.90;;;;;;6216594;23;20168;-87
2022/09/26 00:46:28;;;;;;;5.23;3.80;;;9.80;99.90;;;;;;6214726;23;20183;-86
2022/09/26 00:49:29;;;;;;;5.47;3.93;;;9.90;99.90;;;;;;6216952;23;20496;-87
2022/09/26 00:52:03;;;;;;;6.07;4.20;;;9.90;99.90;;;;;;6215085;23;20288;-88
2022/09/26 00:54:30;;;;;;;7.70;4.13;;;9.90;99.90;;;;;;6215453;23;20671;-87
2022/09/26 00:57:03;;;;;;;6.10;4.57;;;10.40;99.90;;;;;;6215415;23;20180;-88
2022/09/26 00:59:45;;;;;;;5.83;4.03;;;10.00;99.90;;;;;;6215723;23;20478;-88
2022/09/26 01:02:11;;;;;;;7.53;4.30;;;10.90;99.90;;;;;;6215514;23;20495;-89
2022/09/26 01:04:39;;;;;;;8.77;5.00;;;10.10;99.90;;;;;;6214941;23;20245;-88
2022/09/26 01:07:10;;;;;;;7.23;4.77;;;10.20;99.90;;;;;;6215204;23;20221;-87
2022/09/26 01:09:37;;;;;;;6.77;5.23;;;10.60;99.90;;;;;;6215562;23;20170;-87
2022/09/26 01:12:05;;;;;;;5.73;4.73;;;10.30;99.90;;;;;;6216032;23;20253;-87
2022/09/26 01:14:32;;;;;;;7.23;4.80;;;10.30;99.90;;;;;;6216029;23;20535;-87
2022/09/26 01:16:58;;;;;;;7.23;5.00;;;10.40;99.90;;;;;;6216155;23;20187;-87
2022/09/26 01:19:54;;;;;;;8.07;4.80;;;10.50;99.90;;;;;;6217490;23;20586;-88
2022/09/26 01:22:53;;;;;;;5.87;5.00;;;10.40;99.90;;;;;;6217452;23;20543;-88
2022/09/26 01:25:49;;;;;;;7.90;5.47;;;10.40;99.90;;;;;;6216072;23;20159;-88
2022/09/26 01:28:30;;;;;;;6.33;5.00;;;10.40;99.90;;;;;;6216384;23;20194;-87
2022/09/26 01:31:16;;;;;;;5.90;5.10;;;10.40;99.90;;;;;;6216335;23;20646;-87
2022/09/26 01:34:17;;;;;;;6.13;5.00;;;10.50;99.90;;;;;;6156083;23;20675;-87
2022/09/26 01:36:57;;;;;;;8.20;5.20;;;10.50;99.90;;;;;;6200254;23;20492;-87
2022/09/26 01:39:41;;;;;;;8.40;5.27;;;10.50;99.90;;;;;;6216138;23;20601;-87
2022/09/26 01:42:17;;;;;;;6.90;5.23;;;10.50;99.90;;;;;;6216817;23;20199;-87
2022/09/26 01:44:51;;;;;;;8.40;4.83;;;10.60;99.90;;;;;;6216114;23;20194;-87
2022/09/26 01:47:20;;;;;;;6.50;5.20;;;10.60;99.90;;;;;;6216115;23;20198;-86
2022/09/26 01:50:12;;;;;;;7.33;5.00;;;10.60;99.90;;;;;;6216832;23;20189;-87
2022/09/26 01:52:38;;;;;;;8.13;5.33;;;10.60;99.90;;;;;;6215978;23;20171;-86
2022/09/26 01:55:38;;;;;;;10.30;5.50;;;10.60;99.90;;;;;;6217305;23;20520;-86
2022/09/26 01:58:17;;;;;;;6.63;5.33;;;10.60;99.90;;;;;;6150444;23;20206;-87
2022/09/26 02:00:46;;;;;;;5.97;4.90;;;10.60;99.90;;;;;;6216533;23;20155;-87
2022/09/26 02:03:16;;;;;;;7.00;5.10;;;11.70;99.90;;;;;;6216187;23;20163;-88
2022/09/26 02:05:51;;;;;;;5.10;4.60;;;10.60;99.90;;;;;;6216280;23;20210;-87
2022/09/26 02:08:23;;;;;;;10.17;4.77;;;10.70;99.90;;;;;;6217689;23;20290;-88
2022/09/26 02:11:03;;;;;;;7.77;5.50;;;10.70;99.90;;;;;;6215443;23;20643;-89
2022/09/26 02:13:34;;;;;;;6.87;5.20;;;10.70;99.90;;;;;;6217075;23;20148;-88
2022/09/26 02:16:14;;;;;;;6.43;5.40;;;10.70;99.90;;;;;;6215976;23;20158;-89
2022/09/26 02:18:45;;;;;;;8.77;5.67;;;10.70;99.90;;;;;;6215171;23;20217;-88
2022/09/26 02:21:16;;;;;;;6.53;5.17;;;10.80;99.90;;;;;;6217173;23;20166;-90
2022/09/26 02:23:42;;;;;;;7.63;5.63;;;10.70;99.90;;;;;;6216211;23;20160;-87
2022/09/26 02:26:08;;;;;;;7.50;5.70;;;11.20;99.90;;;;;;6215056;23;20198;-88
2022/09/26 02:28:34;;;;;;;6.70;5.40;;;10.70;99.90;;;;;;6215672;23;20591;-89
2022/09/26 02:31:01;;;;;;;10.03;5.17;;;10.70;99.90;;;;;;6215519;23;20180;-88
2022/09/26 02:33:28;;;;;;;8.60;5.60;;;10.70;99.90;;;;;;6215627;23;20163;-89
2022/09/26 02:35:54;;;;;;;8.30;6.00;;;10.80;99.90;;;;;;6216740;23;20623;-88
2022/09/26 02:38:22;;;;;;;11.10;4.83;;;10.70;99.90;;;;;;6215840;23;20618;-88
2022/09/26 02:41:12;;;;;;;5.90;4.90;;;10.80;99.90;;;;;;6215210;23;20214;-88
2022/09/26 02:44:21;;;;;;;6.97;5.17;;;10.80;99.90;;;;;;6215285;23;20157;-89
2022/09/26 02:47:04;;;;;;;6.30;5.17;;;10.80;99.90;;;;;;6215279;23;20564;-88
2022/09/26 02:49:48;;;;;;;8.97;5.17;;;10.80;99.90;;;;;;6215027;23;20201;-88
2022/09/26 02:53:01;;;;;;;10.57;5.70;;;10.80;99.90;;;;;;6215904;23;20158;-89
2022/09/26 02:55:59;;;;;;;8.73;5.00;;;10.90;99.90;;;;;;6100129;23;20161;-89
2022/09/26 02:58:43;;;;;;;7.57;5.13;;;10.80;99.90;;;;;;6101149;23;20289;-90
2022/09/26 03:01:17;;;;;;;8.80;5.20;;;10.90;99.90;;;;;;6199844;23;20163;-89
2022/09/26 03:03:51;;;;;;;8.47;5.20;;;10.90;99.90;;;;;;6216643;23;20172;-89
2022/09/26 03:06:22;;;;;;;9.17;5.17;;;10.80;99.90;;;;;;6215111;23;20524;-87
2022/09/26 03:08:49;;;;;;;6.70;5.33;;;10.90;99.90;;;;;;6215067;23;20197;-89
2022/09/26 03:11:20;;;;;;;11.80;5.93;;;10.90;99.90;;;;;;6216764;23;20250;-91
2022/09/26 03:13:48;;;;;;;6.73;4.57;;;10.90;99.90;;;;;;6215145;23;20667;-88
2022/09/26 03:16:14;;;;;;;8.30;4.87;;;10.90;99.90;;;;;;6216459;23;20159;-88
2022/09/26 03:18:50;;;;;;;9.50;4.90;;;10.80;99.90;;;;;;6215935;23;20183;-89
2022/09/26 03:21:16;;;;;;;9.93;5.47;;;10.80;99.90;;;;;;6216028;23;20163;-90
2022/09/26 03:23:42;;;;;;;9.00;5.63;;;11.00;99.90;;;;;;6215355;23;20170;-87
2022/09/26 03:26:10;;;;;;;7.60;4.87;;;10.80;99.90;;;;;;6215825;23;20684;-90
2022/09/26 03:28:36;;;;;;;7.30;4.57;;;10.80;99.90;;;;;;6215269;23;20634;-89
2022/09/26 03:31:02;;;;;;;11.33;5.27;;;10.80;99.90;;;;;;6218484;23;20159;-88
2022/09/26 03:33:27;;;;;;;6.50;4.43;;;10.80;99.90;;;;;;6217014;23;20238;-89
2022/09/26 03:35:53;;;;;;;11.57;5.27;;;10.80;99.90;;;;;;6214414;23;20186;-87
2022/09/26 03:38:18;;;;;;;9.40;5.00;;;11.00;99.90;;;;;;6215220;23;20205;-88
2022/09/26 03:40:45;;;;;;;7.97;4.50;;;11.10;99.90;;;;;;6214689;23;20632;-89
2022/09/26 03:43:11;;;;;;;10.30;5.20;;;11.80;99.90;;;;;;6214798;23;20545;-89
2022/09/26 03:45:37;;;;;;;7.93;4.73;;;11.30;99.90;;;;;;6215032;23;20163;-88
2022/09/26 03:48:05;;;;;;;6.63;4.73;;;11.00;99.90;;;;;;6216118;23;20175;-88
2022/09/26 03:50:32;;;;;;;8.50;4.97;;;11.20;99.90;;;;;;6214671;23;20473;-88
2022/09/26 03:53:00;;;;;;;10.23;4.53;;;11.10;99.90;;;;;;6215092;23;20166;-87
2022/09/26 03:55:27;;;;;;;9.27;4.70;;;10.80;99.90;;;;;;6215826;23;20151;-89
2022/09/26 03:57:52;;;;;;;6.67;4.37;;;10.70;99.90;;;;;;6215010;23;20183;-89
2022/09/26 04:00:18;;;;;;;8.43;4.33;;;10.70;99.90;;;;;;6214843;23;20191;-89
2022/09/26 04:02:43;;;;;;;6.50;4.07;;;10.70;99.90;;;;;;6214704;23;20247;-88
2022/09/26 04:05:09;;;;;;;6.00;3.87;;;11.10;99.90;;;;;;6216810;23;20207;-89
2022/09/26 04:07:35;;;;;;;10.30;3.97;;;10.60;99.90;;;;;;6215872;23;20218;-89
2022/09/26 04:10:00;;;;;;;8.00;4.33;;;10.60;99.90;;;;;;6214612;23;20163;-89
2022/09/26 04:12:26;;;;;;;9.37;4.27;;;10.60;99.90;;;;;;6216677;23;20605;-88
2022/09/26 04:14:53;;;;;;;6.93;4.23;;;10.60;99.90;;;;;;6215614;23;20191;-92
2022/09/26 04:17:18;;;;;;;12.80;4.43;;;10.60;99.90;;;;;;6214513;23;20195;-89
2022/09/26 04:19:44;;;;;;;6.13;4.23;;;10.60;99.90;;;;;;6216878;23;20245;-92
2022/09/26 04:22:10;;;;;;;8.57;4.60;;;10.60;99.90;;;;;;6215168;23;20174;-89
2022/09/26 04:24:35;;;;;;;7.17;3.93;;;10.60;99.90;;;;;;6216250;23;20235;-91
2022/09/26 04:27:01;;;;;;;11.77;4.37;;;10.50;99.90;;;;;;6214642;23;20289;-89
2022/09/26 04:29:27;;;;;;;7.60;4.20;;;10.60;99.90;;;;;;6215268;23;20159;-91
2022/09/26 04:31:53;;;;;;;6.67;4.13;;;10.50;99.90;;;;;;6215353;23;20161;-89
2022/09/26 04:34:23;;;;;;;7.43;3.90;;;10.50;99.90;;;;;;6214773;23;20274;-90
2022/09/26 04:36:50;;;;;;;6.07;3.80;;;10.50;99.90;;;;;;6214694;23;20191;-89
2022/09/26 04:39:15;;;;;;;6.13;3.60;;;10.50;99.90;;;;;;6215294;23;20167;-90
2022/09/26 04:41:41;;;;;;;9.90;4.07;;;10.50;99.90;;;;;;6214706;23;20217;-89
2022/09/26 04:44:08;;;;;;;10.77;3.53;;;10.50;99.90;;;;;;6215082;23;20162;-92
2022/09/26 04:46:34;;;;;;;5.80;3.50;;;10.50;99.90;;;;;;6214882;23;20229;-87
2022/09/26 04:49:01;;;;;;;11.37;4.10;;;10.50;99.90;;;;;;6215370;23;20186;-87
2022/09/26 04:51:31;;;;;;;5.73;3.17;;;10.40;99.90;;;;;;6217666;23;20155;-89
2022/09/26 04:53:57;;;;;;;8.23;3.67;;;10.70;99.90;;;;;;6216591;23;20198;-90
2022/09/26 04:56:25;;;;;;;5.13;3.23;;;10.50;99.90;;;;;;6218332;23;20175;-89
2022/09/26 04:58:53;;;;;;;7.60;3.23;;;10.70;99.90;;;;;;6217174;23;20163;-87
2022/09/26 05:01:19;;;;;;;4.47;3.00;;;10.40;99.90;;;;;;6216458;23;20250;-88
2022/09/26 05:03:45;;;;;;;4.80;3.10;;;10.40;99.90;;;;;;6216538;23;20194;-88
2022/09/26 05:06:12;;;;;;;5.73;2.97;;;11.20;99.90;;;;;;6216848;23;20184;-89
2022/09/26 05:08:45;;;;;;;6.03;3.17;;;10.70;99.90;;;;;;6216255;23;20213;-86
2022/09/26 05:11:11;;;;;;;5.10;3.13;;;10.40;99.90;;;;;;6217574;23;20162;-88
2022/09/26 05:13:37;;;;;;;6.43;2.47;;;10.30;99.90;;;;;;6217150;23;20521;-89
2022/09/26 05:16:04;;;;;;;4.90;2.87;;;11.50;99.90;;;;;;6216629;23;20164;-88
2022/09/26 05:18:30;;;;;;;4.50;3.00;;;10.30;99.90;;;;;;6216614;23;20172;-90
2022/09/26 05:20:56;;;;;;;5.23;3.20;;;10.70;99.90;;;;;;6217176;23;20171;-91
2022/09/26 05:26:29;;;;;;;7.73;3.30;;;10.30;99.90;;;;;;6218879;23;20234;-88
2022/09/26 05:29:00;;;;;;;6.10;3.00;;;10.30;99.90;;;;;;6216533;23;20579;-89
2022/09/26 05:31:28;;;;;;;4.97;2.90;;;10.90;99.90;;;;;;6217164;23;20536;-87
2022/09/26 05:33:56;;;;;;;6.37;3.03;;;10.30;99.90;;;;;;6231593;22;20205;-40
2022/09/26 05:36:25;;;;;;;5.20;3.10;;;10.30;99.90;;;;;;6247554;22;20179;-41
2022/09/26 05:38:52;;;;;;;4.83;2.90;;;10.30;99.90;;;;;;6247321;22;20170;-41
2022/09/26 05:41:18;;;;;;;7.40;3.10;;;10.30;99.90;;;;;;6247264;22;20154;-42
2022/09/26 05:43:45;;;;;;;5.77;2.90;;;10.30;99.90;;;;;;6247275;22;20155;-40
2022/09/26 05:46:11;;;;;;;4.90;3.20;;;10.30;99.90;;;;;;6245667;23;20622;-43
2022/09/26 05:48:38;;;;;;;4.53;3.37;;;10.30;99.90;;;;;;6247206;22;20148;-40
2022/09/26 05:51:10;;;;;;;4.70;3.07;;;10.30;99.90;;;;;;6247431;22;20610;-41
2022/09/26 05:53:36;;;;;;;7.67;2.93;;;10.30;99.90;;;;;;6247372;22;20148;-38
2022/09/26 05:56:03;;;;;;;6.53;3.00;;;10.40;99.90;;;;;;6247475;22;20456;-38
2022/09/26 05:58:31;;;;;;;8.20;3.23;;;10.40;99.90;;;;;;6220366;23;20601;-38
2022/09/26 06:01:03;;;;;;;5.43;3.07;;;10.40;99.90;;;;;;6247426;22;20466;-39
2022/09/26 06:03:33;;;;;;;3.83;2.77;;;10.40;99.90;;;;;;6245385;23;20153;-39
2022/09/26 06:06:07;;;;;;;6.77;2.97;;;10.50;99.90;;;;;;6245235;23;20187;-41
2022/09/26 06:08:34;;;;;;;4.57;2.70;;;10.50;99.90;;;;;;6247283;22;20138;-40
2022/09/26 06:11:01;;;;;;;7.07;2.83;;;10.50;99.90;;;;;;6247022;22;20175;-40
2022/09/26 06:13:27;;;;;;;8.87;3.10;;;10.60;99.90;;;;;;6247658;22;20592;-38
2022/09/26 06:15:53;;;;;;;8.13;2.90;;;10.70;99.90;;;;;;6246960;22;20152;-38
2022/09/26 06:18:19;;;;;;;3.77;2.53;;;10.70;99.90;;;;;;6247259;22;20505;-38
2022/09/26 06:20:44;;;;;;;8.47;2.70;;;10.70;99.90;;;;;;6245332;23;20169;-37
2022/09/26 06:23:10;;;;;;;5.13;2.47;;;10.80;99.90;;;;;;6247603;22;20162;-39
2022/09/26 06:25:36;;;;;;;3.63;2.20;;;10.80;99.90;;;;;;6245426;23;20166;-39
2022/09/26 06:28:01;;;;;;;3.73;2.20;;;10.80;99.90;;;;;;6248066;22;20600;-38
2022/09/26 06:30:27;;;;;;;2.93;2.10;;;10.90;99.90;;;;;;6246943;22;20597;-38
2022/09/26 06:32:53;;;;;;;5.87;2.03;;;10.90;99.90;;;;;;6246849;22;20163;-40
2022/09/26 06:35:21;;;;;;;4.03;2.20;;;10.90;99.90;;;;;;6246859;22;20166;-40
2022/09/26 06:37:47;;;;;;;3.40;2.27;;;11.00;99.90;;;;;;6246893;22;20260;-40
2022/09/26 06:40:13;;;;;;;5.17;2.37;;;11.00;99.90;;;;;;6246750;22;20179;-40
2022/09/26 06:42:39;;;;;;;3.77;2.17;;;11.00;99.90;;;;;;6246723;22;20151;-40
2022/09/26 06:45:07;;;;;;;5.07;2.93;;;11.00;99.90;;;;;;6247329;22;20635;-40
2022/09/26 06:47:33;;;;;;;3.60;2.13;;;11.10;99.90;;;;;;6245475;23;20193;-40
2022/09/26 06:49:58;;;;;;;3.10;1.70;;;11.10;99.90;;;;;;6246666;22;20472;-39
2022/09/26 06:52:25;;;;;;;2.27;1.90;;;11.10;99.90;;;;;;6246891;22;20161;-40
2022/09/26 06:54:51;;;;;;;5.40;1.43;;;11.10;99.90;;;;;;6246679;22;20461;-42
2022/09/26 06:57:17;;;;;;;2.63;2.00;;;11.20;99.90;;;;;;6245207;23;20206;-40
2022/09/26 06:59:42;;;;;;;3.30;1.40;;;11.20;99.90;;;;;;6246943;22;20285;-40
2022/09/26 07:02:08;;;;;;;2.13;1.20;;;11.20;99.90;;;;;;6246957;22;20162;-41
2022/09/26 07:04:34;;;;;;;5.67;1.70;;;11.20;99.90;;;;;;6246903;22;20197;-40
2022/09/26 07:07:00;;;;;;;4.20;1.60;;;11.20;99.90;;;;;;6244665;23;20198;-41
2022/09/26 07:09:26;;;;;;;4.23;1.80;;;11.20;99.90;;;;;;6246555;22;20612;-41
2022/09/26 07:11:51;;;;;;;5.10;1.80;;;11.20;99.90;;;;;;6246141;22;20158;-40
2022/09/26 07:14:17;;;;;;;2.37;1.17;;;11.20;99.90;;;;;;6247070;22;20205;-40
2022/09/26 07:16:44;;;;;;;5.13;1.70;;;11.20;99.90;;;;;;6244994;23;20209;-39
2022/09/26 07:19:11;;;;;;;2.93;1.47;;;11.20;99.90;;;;;;6246384;22;20151;-41
2022/09/26 07:21:37;;;;;;;4.77;1.40;;;11.20;99.90;;;;;;6246679;22;20170;-40
2022/09/26 07:24:03;;;;;;;3.70;1.57;;;11.20;99.90;;;;;;6246821;22;20221;-39
2022/09/26 07:26:29;;;;;;;3.83;1.30;;;11.20;99.90;;;;;;6246133;22;20273;-39
2022/09/26 07:28:54;;;;;;;1.30;1.00;;;11.20;99.90;;;;;;6246218;22;20162;-38
2022/09/26 07:31:21;;;;;;;2.60;1.47;;;11.20;99.90;;;;;;6246795;22;20154;-41
2022/09/26 07:33:46;;;;;;;2.97;1.27;;;11.20;99.90;;;;;;6246037;22;20170;-40
2022/09/26 07:36:12;;;;;;;3.43;1.40;;;11.20;99.90;;;;;;6246412;22;20556;-40
2022/09/26 07:38:37;;;;;;;3.83;1.20;;;11.20;99.90;;;;;;6246239;22;20185;-38
2022/09/26 07:41:03;;;;;;;1.40;1.13;;;11.20;99.90;;;;;;6246546;22;20182;-40
2022/09/26 07:43:32;;;;;;;5.37;1.40;;;11.20;99.90;;;;;;6244695;23;20190;-40
2022/09/26 07:51:26;;;;;;;5.87;1.50;;;11.20;99.90;;;;;;6246570;23;20583;-41
2022/09/26 07:53:52;;;;;;;1.00;0.90;;;11.20;99.90;;;;;;6245640;23;20155;-40
2022/09/26 07:56:17;;;;;;;1.97;1.10;;;11.20;99.90;;;;;;6245878;23;20273;-38
2022/09/26 07:58:43;;;;;;;2.43;1.10;;;11.30;99.90;;;;;;6246975;22;20155;-41
2022/09/26 08:01:14;;;;;;;6.50;1.10;;;11.30;99.90;;;;;;6246445;22;20483;-40
2022/09/26 08:03:41;;;;;;;1.77;1.10;;;11.30;99.90;;;;;;6244646;23;20162;-40
2022/09/26 08:06:08;;;;;;;2.67;1.20;;;11.30;99.90;;;;;;6246698;22;20245;-38
2022/09/26 08:08:34;;;;;;;2.80;1.30;;;11.30;99.90;;;;;;6246531;22;20159;-43
2022/09/26 08:11:00;;;;;;;2.47;1.10;;;11.30;99.90;;;;;;6246095;22;20155;-42
2022/09/26 08:13:28;;;;;;;1.90;1.10;;;11.30;99.90;;;;;;6244696;23;20159;-40
2022/09/26 08:15:55;;;;;;;3.87;1.10;;;11.30;99.90;;;;;;6247007;22;20162;-41
2022/09/26 08:18:21;;;;;;;4.30;1.20;;;11.40;99.90;;;;;;6244423;23;20193;-39
2022/09/26 08:20:47;;;;;;;4.00;1.10;;;11.30;99.90;;;;;;6246830;22;20157;-40
2022/09/26 08:23:16;;;;;;;3.00;1.23;;;11.40;99.90;;;;;;6247430;22;20159;-43
2022/09/26 08:25:43;;;;;;;2.40;1.10;;;11.40;99.90;;;;;;6246414;23;20163;-40
2022/09/26 08:28:11;;;;;;;5.27;1.43;;;11.40;99.90;;;;;;6248544;22;20155;-39
2022/09/26 08:30:39;;;;;;;2.33;1.20;;;11.50;99.90;;;;;;6248845;22;20155;-42
2022/09/26 08:33:06;;;;;;;6.23;1.57;;;11.50;99.90;;;;;;6248328;22;20165;-40
2022/09/26 08:35:34;;;;;;;2.03;1.20;;;11.50;99.90;;;;;;6247967;22;20179;-42
2022/09/26 08:38:07;;;;;;;4.00;1.07;;;11.50;99.90;;;;;;6249493;22;20182;-41
2022/09/26 08:40:51;;;;;;;3.83;1.07;;;11.60;99.90;;;;;;6248062;22;20527;-40
2022/09/26 08:43:36;;;;;;;2.03;0.87;;;11.60;99.90;;;;;;6248601;22;20225;-41
2022/09/26 08:46:49;;;;;;;1.77;0.90;;;11.70;99.90;;;;;;6248084;22;20187;-39
2022/09/26 08:49:49;;;;;;;1.10;0.80;;;11.80;99.90;;;;;;6247373;23;20169;-40
2022/09/26 08:52:28;;;;;;;1.83;1.00;;;11.80;99.90;;;;;;6246432;23;20165;-42
2022/09/26 08:55:04;;;;;;;2.47;1.20;;;11.80;99.90;;;;;;6248719;22;20152;-42
2022/09/26 08:57:37;;;;;;;8.23;1.20;;;11.80;99.90;;;;;;6248616;22;20193;-39
2022/09/26 09:00:24;;;;;;;1.67;1.30;;;11.90;99.90;;;;;;6248364;22;20143;-42
2022/09/26 09:03:09;;;;;;;1.63;1.03;;;11.90;99.90;;;;;;6247997;22;20174;-39
2022/09/26 09:05:40;;;;;;;3.27;1.10;;;11.80;99.90;;;;;;6247704;22;20226;-43
2022/09/26 09:08:14;;;;;;;3.87;1.30;;;11.80;99.90;;;;;;6248082;22;20151;-40
2022/09/26 09:11:09;;;;;;;1.13;0.80;;;11.90;99.90;;;;;;6247983;22;20526;-41
2022/09/26 09:13:51;;;;;;;1.67;1.20;;;11.90;99.90;;;;;;6246196;23;20158;-39
2022/09/26 09:16:28;;;;;;;4.13;1.03;;;11.90;99.90;;;;;;6247983;22;20185;-42
2022/09/26 09:19:11;;;;;;;2.97;1.30;;;11.90;99.90;;;;;;6247776;22;20158;-37
2022/09/26 09:22:13;;;;;;;3.80;1.00;;;11.90;99.90;;;;;;6248003;22;20150;-38
2022/09/26 09:24:45;;;;;;;3.87;1.10;;;12.00;99.90;;;;;;6247876;22;20238;-40
2022/09/26 09:27:38;;;;;;;2.47;1.10;;;11.90;99.90;;;;;;6247455;22;20187;-39
2022/09/26 09:30:16;;;;;;;3.20;1.13;;;12.00;99.90;;;;;;6247789;22;20140;-38
2022/09/26 09:33:11;;;;;;;2.60;1.00;;;12.00;99.90;;;;;;6247774;22;20150;-41
2022/09/26 09:36:08;;;;;;;2.17;1.30;;;12.00;99.90;;;;;;6234538;23;20174;-39
2022/09/26 09:38:37;;;;;;;3.70;1.57;;;12.10;99.90;;;;;;6219924;23;20601;-38
2022/09/26 09:41:27;;;;;;;5.30;1.37;;;12.00;99.90;;;;;;6247783;22;20156;-40
2022/09/26 09:43:59;;;;;;;2.30;1.00;;;12.10;99.90;;;;;;6247874;22;20187;-41
2022/09/26 09:46:31;;;;;;;3.80;1.20;;;12.10;99.90;;;;;;6247633;22;20187;-39
2022/09/26 09:49:20;;;;;;;1.13;1.00;;;12.20;99.90;;;;;;6247407;22;20147;-39
2022/09/26 09:52:04;;;;;;;2.27;1.23;;;12.20;99.90;;;;;;6245618;23;20593;-43
2022/09/26 09:54:54;;;;;;;5.60;1.43;;;12.30;99.90;;;;;;6245748;23;20156;-41
2022/09/26 09:57:44;;;;;;;1.50;1.00;;;12.30;99.90;;;;;;6245571;23;20189;-40
2022/09/26 10:00:18;;;;;;;1.83;1.27;;;12.40;99.90;;;;;;6247644;22;20558;-38
2022/09/26 10:03:00;;;;;;;3.47;1.20;;;12.50;99.90;;;;;;6247529;22;20152;-40
2022/09/26 10:05:41;;;;;;;1.97;1.10;;;12.50;99.90;;;;;;6248097;22;20144;-40
2022/09/26 10:08:26;;;;;;;3.33;1.03;;;12.50;99.90;;;;;;6245890;23;20505;-38
2022/09/26 10:10:57;;;;;;;3.67;1.40;;;12.60;99.90;;;;;;6247572;22;20155;-42
2022/09/26 10:13:25;;;;;;;4.33;1.37;;;12.60;99.90;;;;;;6247062;22;20158;-41
2022/09/26 10:15:59;;;;;;;2.27;0.83;;;12.70;99.90;;;;;;6247474;22;20156;-42
2022/09/26 10:18:25;;;;;;;5.40;1.30;;;12.80;99.90;;;;;;6247074;22;20577;-38
2022/09/26 10:20:53;;;;;;;4.33;1.10;;;12.80;99.90;;;;;;6247614;22;20151;-40
2022/09/26 10:23:40;;;;;;;2.53;1.20;;;12.90;99.90;;;;;;6245367;23;20191;-43
2022/09/26 10:26:08;;;;;;;1.50;0.97;;;13.00;99.90;;;;;;6246877;22;20191;-38
2022/09/26 10:28:43;;;;;;;1.80;0.90;;;13.00;99.90;;;;;;6246887;22;20156;-40
2022/09/26 10:31:10;;;;;;;3.03;0.97;;;13.00;99.90;;;;;;6247221;22;20151;-41
2022/09/26 10:33:42;;;;;;;1.53;0.97;;;13.10;99.90;;;;;;6245155;23;20172;-39
2022/09/26 10:36:16;;;;;;;5.83;1.10;;;13.20;99.90;;;;;;6247151;22;20203;-44
2022/09/26 10:40:43;;;;;;;5.67;1.40;;;13.20;99.90;;;;;;6246820;22;20651;-41
2022/09/26 10:41:41;;;;;;;7.60;1.20;;;13.20;99.90;;;;;;6246526;23;20498;-42
2022/09/26 10:44:21;;;;;;;2.97;1.07;;;13.30;99.90;;;;;;6246899;22;20152;-40
2022/09/26 10:46:50;;;;;;;3.10;1.13;;;13.40;99.90;;;;;;6245956;22;20183;-42
2022/09/26 10:49:20;;;;;;;1.43;1.00;;;13.50;99.90;;;;;;6247013;22;20160;-40
2022/09/26 10:52:03;;;;;;;4.53;1.00;;;13.60;99.90;;;;;;6246694;22;20178;-39
2022/09/26 10:54:41;;;;;;;2.47;0.77;;;13.60;99.90;;;;;;6245023;23;20174;-39
2022/09/26 10:57:18;;;;;;;3.07;1.00;;;13.70;99.90;;;;;;6246930;22;20617;-38
2022/09/26 10:59:45;;;;;;;2.43;0.77;;;13.70;99.90;;;;;;6247283;22;20143;-38
2022/09/26 11:02:18;;;;;;;4.00;1.20;;;13.70;99.90;;;;;;6246906;22;20159;-39
2022/09/26 11:07:34;;;;;;;3.73;1.20;;;13.80;99.90;;;;;;6246338;23;20187;-42
2022/09/26 11:10:05;;;;;;;1.70;1.03;;;13.90;99.90;;;;;;6246802;22;20132;-39
2022/09/26 11:12:38;;;;;;;2.13;0.80;;;13.90;99.90;;;;;;6247040;22;20132;-41
2022/09/26 11:15:12;;;;;;;3.43;1.00;;;13.90;99.90;;;;;;6246860;22;20530;-38
2022/09/26 11:17:46;;;;;;;2.50;0.80;;;13.90;99.90;;;;;;6246517;22;20175;-41
2022/09/26 11:20:37;;;;;;;7.23;1.20;;;14.10;99.90;;;;;;6247339;22;20154;-40
2022/09/26 11:23:39;;;;;;;3.70;1.10;;;14.10;99.90;;;;;;6247061;22;20574;-38
2022/09/26 11:26:31;;;;;;;2.00;0.97;;;14.20;99.90;;;;;;6244617;23;20212;-39
2022/09/26 11:29:20;;;;;;;7.37;1.10;;;14.30;99.90;;;;;;6247099;22;20275;-42
2022/09/26 11:31:47;;;;;;;1.23;0.80;;;14.40;99.90;;;;;;6246697;22;20163;-41
2022/09/26 11:34:16;;;;;;;1.17;0.83;;;14.40;99.90;;;;;;6246388;22;20167;-41
2022/09/26 11:36:59;;;;;;;3.27;1.23;;;14.50;99.90;;;;;;6246043;22;20178;-39
2022/09/26 11:39:31;;;;;;;2.87;1.00;;;14.60;99.90;;;;;;6247256;22;20235;-41
2022/09/26 11:42:14;;;;;;;2.53;1.10;;;14.70;99.90;;;;;;6246248;22;20156;-42
2022/09/26 11:44:51;;;;;;;2.00;1.00;;;14.80;99.90;;;;;;6246716;22;20163;-40
2022/09/26 11:47:28;;;;;;;2.40;1.03;;;14.90;99.90;;;;;;6246543;22;20225;-39
2022/09/26 11:50:22;;;;;;;4.00;1.33;;;14.90;99.90;;;;;;6245531;23;20212;-42
2022/09/26 11:53:12;;;;;;;4.67;2.80;;;14.90;99.90;;;;;;6247276;22;20163;-39
2022/09/26 11:56:05;;;;;;;5.23;1.00;;;15.00;99.90;;;;;;6246511;22;20222;-40
2022/09/26 11:59:16;;;;;;;1.70;0.83;;;15.10;99.90;;;;;;6246071;22;20166;-39
2022/09/26 12:02:14;;;;;;;2.20;1.27;;;15.00;99.90;;;;;;6246410;23;20215;-41
2022/09/26 12:05:01;;;;;;;2.67;0.97;;;14.90;99.90;;;;;;6245379;23;20165;-40
2022/09/26 12:07:47;;;;;;;2.50;0.93;;;14.90;99.90;;;;;;6246693;22;20516;-38
2022/09/26 12:10:18;;;;;;;3.43;1.00;;;14.70;99.90;;;;;;6246390;22;20140;-38
2022/09/26 12:13:17;;;;;;;2.33;1.13;;;14.60;99.90;;;;;;6246562;22;20198;-41
2022/09/26 12:15:57;;;;;;;1.73;1.10;;;14.50;99.90;;;;;;6246294;22;20170;-41
2022/09/26 12:18:42;;;;;;;3.83;1.03;;;14.40;99.90;;;;;;6246581;22;20328;-42
2022/09/26 12:21:31;;;;;;;3.57;0.97;;;14.30;99.90;;;;;;6246477;22;20235;-37
2022/09/26 12:24:05;;;;;;;3.73;1.10;;;14.10;99.90;;;;;;6245211;23;20471;-40
2022/09/26 12:26:57;;;;;;;3.60;0.87;;;14.10;99.90;;;;;;6246259;22;20261;-41
2022/09/26 12:29:32;;;;;;;4.23;1.17;;;14.00;99.90;;;;;;6246004;22;20132;-39
2022/09/26 12:32:27;;;;;;;3.93;1.17;;;14.00;99.90;;;;;;6246165;22;20158;-41
2022/09/26 12:35:11;;;;;;;3.23;1.30;;;14.00;99.90;;;;;;6245925;23;20548;-39
2022/09/26 12:38:00;;;;;;;2.43;1.30;;;14.00;99.90;;;;;;6246241;23;20202;-39
2022/09/26 12:40:32;;;;;;;3.63;1.10;;;14.10;99.90;;;;;;6246496;22;20144;-36
2022/09/26 12:43:01;;;;;;;4.03;1.10;;;14.10;99.90;;;;;;6246061;22;20219;-43
2022/09/26 12:45:41;;;;;;;3.13;1.10;;;14.10;99.90;;;;;;6246217;22;20153;-43
2022/09/26 12:48:43;;;;;;;7.33;1.17;;;14.10;99.90;;;;;;6245804;22;20482;-47
2022/09/26 12:51:22;;;;;;;6.33;1.40;;;14.10;99.90;;;;;;6246152;22;20156;-44
2022/09/26 12:53:58;;;;;;;2.27;1.03;;;14.10;99.90;;;;;;6246223;22;20218;-45
2022/09/26 12:56:46;;;;;;;3.43;1.10;;;14.10;99.90;;;;;;6245971;22;20177;-43
2022/09/26 12:59:32;;;;;;;2.13;0.97;;;14.10;99.90;;;;;;6246591;22;20164;-44
2022/09/26 13:02:07;;;;;;;2.47;1.10;;;14.00;99.90;;;;;;6246027;22;20161;-43
2022/09/26 13:04:54;;;;;;;3.13;1.23;;;14.10;99.90;;;;;;6246218;22;20168;-45
2022/09/26 13:07:47;;;;;;;2.10;0.97;;;14.10;99.90;;;;;;6244231;23;20188;-43
2022/09/26 13:11:03;;;;;;;5.73;0.90;;;14.10;99.90;;;;;;6240915;23;20160;-42
2022/09/26 13:14:07;;;;;;;3.63;1.20;;;14.10;99.90;;;;;;6209393;22;20160;-43
2022/09/26 13:17:05;;;;;;;3.77;1.13;;;14.10;99.90;;;;;;6246337;23;20564;-45
2022/09/26 13:19:50;;;;;;;2.23;1.00;;;14.10;99.90;;;;;;6247057;23;20144;-45
2022/09/26 13:22:50;;;;;;;2.43;1.10;;;14.10;99.90;;;;;;6248226;22;20144;-46
2022/09/26 13:25:18;;;;;;;2.30;1.37;;;14.00;99.90;;;;;;6246508;23;20561;-45
2022/09/26 13:28:08;;;;;;;3.17;1.07;;;14.00;99.90;;;;;;6246590;23;20664;-45
2022/09/26 13:30:38;;;;;;;2.10;1.00;;;14.10;99.90;;;;;;6246181;23;20144;-41
2022/09/26 13:33:17;;;;;;;3.77;1.20;;;14.00;99.90;;;;;;6247532;22;20689;-40
2022/09/26 13:35:46;;;;;;;4.37;1.33;;;14.00;99.90;;;;;;6247474;22;20594;-37